createdAt,value
2022-10-07T00:00:38.643Z,12.57
2022-10-07T00:03:09.390Z,12.00
2022-10-07T00:05:40.104Z,12.87
2022-10-07T00:08:10.884Z,13.90
2022-10-07T00:10:42.610Z,12.63
2022-10-07T00:13:14.447Z,14.70
2022-10-07T00:15:46.801Z,13.23
2022-10-07T00:18:18.568Z,13.97
2022-10-07T00:20:49.282Z,14.73
2022-10-07T00:23:22.413Z,13.50
2022-10-07T00:25:53.358Z,12.80
2022-10-07T00:28:26.337Z,13.00
2022-10-07T00:31:02.629Z,13.97
2022-10-07T00:33:35.007Z,14.70
2022-10-07T00:36:10.272Z,14.20
2022-10-07T00:38:41.318Z,13.20
2022-10-07T00:41:18.837Z,12.90
2022-10-07T00:43:50.114Z,13.93
2022-10-07T00:46:30.416Z,12.60
2022-10-07T00:49:04.204Z,13.80
2022-10-07T00:51:36.587Z,13.30
2022-10-07T00:54:10.990Z,13.50
2022-10-07T00:56:43.533Z,13.90
2022-10-07T00:59:14.889Z,14.63
2022-10-07T01:01:48.487Z,13.10
2022-10-07T01:04:20.346Z,14.53
2022-10-07T01:06:51.144Z,14.07
2022-10-07T01:09:22.425Z,15.10
2022-10-07T01:12:02.073Z,16.13
2022-10-07T01:14:46.089Z,23.33
2022-10-07T01:17:28.341Z,20.33
2022-10-07T01:20:27.926Z,17.70
2022-10-07T01:23:23.567Z,16.37
2022-10-07T01:26:08.178Z,17.60
2022-10-07T01:28:44.087Z,14.67
2022-10-07T01:31:20.300Z,17.30
2022-10-07T01:33:52.535Z,15.43
2022-10-07T01:36:26.583Z,15.87
2022-10-07T01:39:08.203Z,16.87
2022-10-07T01:41:41.709Z,16.10
2022-10-07T01:44:16.475Z,16.00
2022-10-07T01:46:48.625Z,15.93
2022-10-07T01:49:19.366Z,15.73
2022-10-07T01:51:57.634Z,16.10
2022-10-07T01:54:39.635Z,18.13
2022-10-07T01:57:21.000Z,17.70
2022-10-07T02:00:06.382Z,21.37
2022-10-07T02:02:58.158Z,22.80
2022-10-07T02:05:40.573Z,22.93
2022-10-07T02:08:31.083Z,22.93
2022-10-07T02:11:14.792Z,24.60
2022-10-07T02:13:56.621Z,24.53
2022-10-07T02:16:33.462Z,22.37
2022-10-07T02:19:09.480Z,23.80
2022-10-07T02:21:41.985Z,22.37
2022-10-07T02:24:15.223Z,21.77
2022-10-07T02:26:48.190Z,22.07
2022-10-07T02:29:20.984Z,21.17
2022-10-07T02:31:55.226Z,20.87
2022-10-07T02:34:29.367Z,21.50
2022-10-07T02:37:04.374Z,20.30
2022-10-07T02:39:35.186Z,19.97
2022-10-07T02:42:19.298Z,19.70
2022-10-07T02:44:54.294Z,19.63
2022-10-07T02:47:32.661Z,20.80
2022-10-07T02:50:06.723Z,21.53
2022-10-07T02:52:38.810Z,19.80
2022-10-07T02:55:12.537Z,21.80
2022-10-07T02:57:47.107Z,21.60
2022-10-07T03:00:19.744Z,20.73
2022-10-07T03:02:54.739Z,22.97
2022-10-07T03:05:26.868Z,20.17
2022-10-07T03:08:00.556Z,18.97
2022-10-07T03:10:31.469Z,18.87
2022-10-07T03:13:02.546Z,15.87
2022-10-07T03:15:35.550Z,15.30
2022-10-07T03:18:27.003Z,15.47
2022-10-07T03:20:58.512Z,14.67
2022-10-07T03:23:30.691Z,15.13
2022-10-07T03:26:02.481Z,15.50
2022-10-07T03:28:38.678Z,13.87
2022-10-07T03:31:10.835Z,13.93
2022-10-07T03:33:43.483Z,14.70
2022-10-07T03:36:14.823Z,13.90
2022-10-07T03:38:45.578Z,15.50
2022-10-07T03:41:16.299Z,15.67
2022-10-07T03:43:47.338Z,14.77
2022-10-07T03:46:18.203Z,13.63
2022-10-07T03:48:50.687Z,13.30
2022-10-07T03:51:21.514Z,12.43
2022-10-07T03:53:55.357Z,13.27
2022-10-07T03:56:26.163Z,13.83
2022-10-07T03:58:56.907Z,13.77
2022-10-07T04:01:28.048Z,13.43
2022-10-07T04:04:01.368Z,12.07
2022-10-07T04:06:32.149Z,13.40
2022-10-07T04:09:04.265Z,13.63
2022-10-07T04:11:35.299Z,13.80
2022-10-07T04:14:06.109Z,11.57
2022-10-07T04:16:38.225Z,13.00
2022-10-07T04:19:10.784Z,12.50
2022-10-07T04:21:42.461Z,12.83
2022-10-07T04:24:13.182Z,13.13
2022-10-07T04:26:44.629Z,11.83
2022-10-07T04:29:16.394Z,12.07
2022-10-07T04:31:47.416Z,13.57
2022-10-07T04:34:19.809Z,13.50
2022-10-07T04:36:50.566Z,12.07
2022-10-07T04:39:21.440Z,12.73
2022-10-07T04:41:52.560Z,11.23
2022-10-07T04:44:23.298Z,11.97
2022-10-07T04:46:57.296Z,12.40
2022-10-07T04:49:29.702Z,12.90
2022-10-07T04:52:00.475Z,13.13
2022-10-07T04:54:31.214Z,11.40
2022-10-07T04:57:01.996Z,11.67
2022-10-07T04:59:33.729Z,12.87
2022-10-07T05:02:05.306Z,11.90
2022-10-07T05:04:37.881Z,10.87
2022-10-07T05:07:09.389Z,10.97
2022-10-07T05:09:40.113Z,12.77
2022-10-07T05:12:10.941Z,11.17
2022-10-07T05:14:43.979Z,11.57
2022-10-07T05:17:15.354Z,11.90
2022-10-07T05:19:47.718Z,11.90
2022-10-07T05:22:18.489Z,13.67
2022-10-07T05:24:49.306Z,10.60
2022-10-07T05:27:20.130Z,12.07
2022-10-07T05:29:51.008Z,12.43
2022-10-07T05:32:22.049Z,11.40
2022-10-07T05:34:54.663Z,12.73
2022-10-07T05:37:25.504Z,12.10
2022-10-07T05:39:56.294Z,11.53
2022-10-07T05:42:27.134Z,11.60
2022-10-07T05:44:57.943Z,12.07
2022-10-07T05:47:28.812Z,12.40
2022-10-07T05:50:01.271Z,10.70
2022-10-07T05:52:32.943Z,11.23
2022-10-07T05:55:03.783Z,11.83
2022-10-07T05:57:34.702Z,11.83
2022-10-07T06:00:06.211Z,10.90
2022-10-07T06:02:37.171Z,11.33
2022-10-07T06:05:10.888Z,10.93
2022-10-07T06:07:41.735Z,12.90
2022-10-07T06:10:29.903Z,11.80
2022-10-07T06:13:12.586Z,12.43
2022-10-07T06:15:43.386Z,12.80
2022-10-07T06:18:14.277Z,10.30
2022-10-07T06:20:55.188Z,11.37
2022-10-07T06:23:26.319Z,12.50
2022-10-07T06:26:00.014Z,11.93
2022-10-07T06:28:35.663Z,11.07
2022-10-07T06:31:08.127Z,12.10
2022-10-07T06:33:39.323Z,11.13
2022-10-07T06:36:14.653Z,11.20
2022-10-07T06:38:48.211Z,9.93
2022-10-07T06:41:19.517Z,11.57
2022-10-07T06:43:50.600Z,11.47
2022-10-07T06:46:22.615Z,10.97
2022-10-07T06:48:53.478Z,11.27
2022-10-07T06:51:26.055Z,11.00
2022-10-07T06:53:58.446Z,11.93
2022-10-07T06:56:29.268Z,11.40
2022-10-07T06:59:00.106Z,12.30
2022-10-07T07:01:30.948Z,11.50
2022-10-07T07:04:02.910Z,11.53
2022-10-07T07:06:39.123Z,10.23
2022-10-07T07:09:09.906Z,12.03
2022-10-07T07:11:42.555Z,12.20
2022-10-07T07:14:14.589Z,11.23
2022-10-07T07:16:45.458Z,11.03
2022-10-07T07:19:16.927Z,11.23
2022-10-07T07:21:51.318Z,9.73
2022-10-07T07:24:22.799Z,11.40
2022-10-07T07:26:53.726Z,11.90
2022-10-07T07:29:24.723Z,11.00
2022-10-07T07:31:55.881Z,10.27
2022-10-07T07:34:26.802Z,11.00
2022-10-07T07:36:59.287Z,10.50
2022-10-07T07:39:29.982Z,11.33
2022-10-07T07:42:00.744Z,11.20
2022-10-07T07:44:34.770Z,10.73
2022-10-07T07:47:06.400Z,10.80
2022-10-07T07:49:37.151Z,12.27
2022-10-07T07:52:09.511Z,11.20
2022-10-07T07:54:42.325Z,10.30
2022-10-07T07:57:13.221Z,11.20
2022-10-07T07:59:43.986Z,11.63
2022-10-07T08:02:15.225Z,10.60
2022-10-07T08:04:46.116Z,11.20
2022-10-07T08:07:18.782Z,12.57
2022-10-07T08:09:49.535Z,11.97
2022-10-07T08:12:21.850Z,12.27
2022-10-07T08:14:53.595Z,11.63
2022-10-07T08:17:25.442Z,11.67
2022-10-07T08:19:57.050Z,10.63
2022-10-07T08:22:29.430Z,11.70
2022-10-07T08:25:01.002Z,11.00
2022-10-07T08:27:31.734Z,11.73
2022-10-07T08:30:03.127Z,10.43
2022-10-07T08:32:33.850Z,11.00
2022-10-07T08:35:04.571Z,10.43
2022-10-07T08:37:36.935Z,11.73
2022-10-07T08:40:08.457Z,11.50
2022-10-07T08:42:43.134Z,9.97
2022-10-07T08:45:23.301Z,11.13
2022-10-07T08:47:54.858Z,11.40
2022-10-07T08:50:30.832Z,11.83
2022-10-07T08:53:05.594Z,10.67
2022-10-07T08:55:42.851Z,11.13
2022-10-07T08:58:46.326Z,11.40
2022-10-07T09:01:28.466Z,11.17
2022-10-07T09:04:08.996Z,9.83
2022-10-07T09:06:44.722Z,10.33
2022-10-07T09:09:21.756Z,9.47
2022-10-07T09:11:53.838Z,10.87
2022-10-07T09:14:31.376Z,10.20
2022-10-07T09:17:08.958Z,10.37
2022-10-07T09:19:44.533Z,11.10
2022-10-07T09:22:23.152Z,11.63
2022-10-07T09:25:11.279Z,11.00
2022-10-07T09:27:42.849Z,10.80
2022-10-07T09:30:16.304Z,11.10
2022-10-07T09:32:48.130Z,10.90
2022-10-07T09:35:21.466Z,10.07
2022-10-07T09:38:04.113Z,11.30
2022-10-07T09:40:59.120Z,9.50
2022-10-07T09:43:30.523Z,10.77
2022-10-07T09:46:02.022Z,10.80
2022-10-07T09:48:35.163Z,12.30
2022-10-07T09:51:28.350Z,9.57
2022-10-07T09:54:03.628Z,10.73
2022-10-07T09:56:39.977Z,10.87
2022-10-07T09:59:24.887Z,11.37
2022-10-07T10:01:57.342Z,11.43
2022-10-07T10:04:34.230Z,10.03
2022-10-07T10:07:08.167Z,11.10
2022-10-07T10:09:38.975Z,12.30
2022-10-07T10:12:18.903Z,10.00
2022-10-07T10:14:54.026Z,10.23
2022-10-07T10:17:32.357Z,11.67
2022-10-07T10:20:37.156Z,11.27
2022-10-07T10:23:31.315Z,10.83
2022-10-07T10:26:33.920Z,13.43
2022-10-07T10:29:27.530Z,10.53
2022-10-07T10:32:23.423Z,10.50
2022-10-07T10:35:02.414Z,10.40
2022-10-07T10:37:47.046Z,11.20
2022-10-07T10:40:25.938Z,11.10
2022-10-07T10:43:06.737Z,10.70
2022-10-07T10:45:47.681Z,10.93
2022-10-07T10:48:31.517Z,11.20
2022-10-07T10:51:11.034Z,12.17
2022-10-07T10:53:52.593Z,12.07
2022-10-07T10:56:36.928Z,10.27
2022-10-07T10:59:27.397Z,9.70
2022-10-07T11:02:07.827Z,10.67
2022-10-07T11:04:46.313Z,10.17
2022-10-07T11:07:24.341Z,12.27
2022-10-07T11:09:58.006Z,10.27
2022-10-07T11:12:32.678Z,10.93
2022-10-07T11:15:09.634Z,9.37
2022-10-07T11:17:42.607Z,10.87
2022-10-07T11:20:21.684Z,10.50
2022-10-07T11:22:57.556Z,10.60
2022-10-07T11:25:34.166Z,11.87
2022-10-07T11:28:16.010Z,10.07
2022-10-07T11:30:52.552Z,11.53
2022-10-07T11:33:32.873Z,10.70
2022-10-07T11:36:11.293Z,11.70
2022-10-07T11:38:43.486Z,8.87
2022-10-07T11:41:20.746Z,10.93
2022-10-07T11:43:56.565Z,10.97
2022-10-07T11:46:31.290Z,9.77
2022-10-07T11:49:08.622Z,10.97
2022-10-07T11:51:42.390Z,10.10
2022-10-07T11:54:19.595Z,11.30
2022-10-07T11:56:52.686Z,10.77
2022-10-07T11:59:34.273Z,10.50
2022-10-07T12:02:05.353Z,10.80
2022-10-07T12:04:41.623Z,9.30
2022-10-07T12:07:37.796Z,10.67
2022-10-07T12:10:27.309Z,11.30
2022-10-07T12:13:01.369Z,10.67
2022-10-07T12:15:39.590Z,11.80
2022-10-07T12:18:32.404Z,10.83
2022-10-07T12:21:07.748Z,10.03
2022-10-07T12:23:48.217Z,9.77
2022-10-07T12:26:54.678Z,10.53
2022-10-07T12:29:36.618Z,9.90
2022-10-07T12:32:27.515Z,8.30
2022-10-07T12:34:58.316Z,11.00
2022-10-07T12:38:06.875Z,9.43
2022-10-07T12:40:40.063Z,10.00
2022-10-07T12:43:29.661Z,10.73
2022-10-07T12:46:01.443Z,11.77
2022-10-07T12:48:37.629Z,11.13
2022-10-07T12:51:14.527Z,10.57
2022-10-07T12:53:48.381Z,9.77
2022-10-07T12:56:23.975Z,8.67
2022-10-07T12:59:27.016Z,11.07
2022-10-07T13:02:29.461Z,9.90
2022-10-07T13:05:35.041Z,10.47
2022-10-07T13:08:49.324Z,10.63
2022-10-07T13:11:52.228Z,8.40
2022-10-07T13:14:30.773Z,9.37
2022-10-07T13:17:11.259Z,9.67
2022-10-07T13:19:49.196Z,11.37
2022-10-07T13:22:20.803Z,10.00
2022-10-07T13:24:54.120Z,9.93
2022-10-07T13:27:30.111Z,10.00
2022-10-07T13:30:02.878Z,9.90
2022-10-07T13:32:35.056Z,8.80
2022-10-07T13:35:36.235Z,9.40
2022-10-07T13:38:09.588Z,10.37
2022-10-07T13:40:40.701Z,10.23
2022-10-07T13:43:17.684Z,9.83
2022-10-07T13:45:49.790Z,9.27
2022-10-07T13:48:23.942Z,8.90
2022-10-07T13:50:56.851Z,9.37
2022-10-07T13:53:31.459Z,9.80
2022-10-07T13:56:11.725Z,9.60
2022-10-07T13:58:44.522Z,8.60
2022-10-07T14:01:16.038Z,9.00
2022-10-07T14:04:11.244Z,9.63
2022-10-07T14:06:50.779Z,10.57
2022-10-07T14:09:23.380Z,9.47
2022-10-07T14:11:59.253Z,10.90
2022-10-07T14:14:36.238Z,9.60
2022-10-07T14:17:14.805Z,9.10
2022-10-07T14:19:45.546Z,11.83
2022-10-07T14:22:22.523Z,9.17
2022-10-07T14:25:02.887Z,10.67
2022-10-07T14:27:57.189Z,9.67
2022-10-07T14:30:53.322Z,10.47
2022-10-07T14:33:49.555Z,7.97
2022-10-07T14:36:22.111Z,8.70
2022-10-07T14:38:54.241Z,9.70
2022-10-07T14:41:25.983Z,10.40
2022-10-07T14:44:00.911Z,10.90
2022-10-07T14:46:34.219Z,8.60
2022-10-07T14:49:05.011Z,10.77
2022-10-07T14:51:35.752Z,9.33
2022-10-07T14:54:08.598Z,10.27
2022-10-07T14:56:39.660Z,12.47
2022-10-07T14:59:20.170Z,12.07
2022-10-07T15:01:52.550Z,11.47
2022-10-07T15:04:23.432Z,14.30
2022-10-07T15:06:54.215Z,14.60
2022-10-07T15:09:24.999Z,13.00
2022-10-07T15:11:55.759Z,13.33
2022-10-07T15:14:26.509Z,13.00
2022-10-07T15:16:58.914Z,14.50
2022-10-07T15:19:29.660Z,13.73
2022-10-07T15:22:00.862Z,14.97
2022-10-07T15:24:31.869Z,14.30
2022-10-07T15:27:03.246Z,13.10
2022-10-07T15:29:33.999Z,14.20
2022-10-07T15:32:08.285Z,15.50
2022-10-07T15:34:39.056Z,13.93
2022-10-07T15:37:10.457Z,14.30
2022-10-07T15:39:41.243Z,13.00
2022-10-07T15:42:13.695Z,14.40
2022-10-07T15:44:45.794Z,13.30
2022-10-07T15:47:18.203Z,15.53
2022-10-07T15:49:49.838Z,14.10
2022-10-07T15:52:20.585Z,13.17
2022-10-07T15:54:51.870Z,14.60
2022-10-07T15:57:23.249Z,14.73
2022-10-07T15:59:55.511Z,14.90
2022-10-07T16:02:27.951Z,13.47
2022-10-07T16:04:58.745Z,14.27
2022-10-07T16:07:31.052Z,16.10
2022-10-07T16:10:01.846Z,12.87
2022-10-07T16:12:32.584Z,14.43
2022-10-07T16:15:04.534Z,14.30
2022-10-07T16:17:36.911Z,15.10
2022-10-07T16:20:11.339Z,15.07
2022-10-07T16:22:42.474Z,13.37
2022-10-07T16:25:13.397Z,14.63
2022-10-07T16:28:02.673Z,12.93
2022-10-07T16:30:46.136Z,12.60
2022-10-07T16:33:19.430Z,13.90
2022-10-07T16:35:50.335Z,15.37
2022-10-07T16:38:23.872Z,12.57
2022-10-07T16:40:57.751Z,13.37
2022-10-07T16:43:28.610Z,12.37
2022-10-07T16:46:02.825Z,14.47
2022-10-07T16:48:40.114Z,14.40
2022-10-07T16:51:12.529Z,14.13
2022-10-07T16:53:43.628Z,15.23
2022-10-07T16:56:14.532Z,15.30
2022-10-07T16:58:45.577Z,14.40
2022-10-07T17:01:17.595Z,15.50
2022-10-07T17:03:50.657Z,16.03
2022-10-07T17:06:22.713Z,15.30
2022-10-07T17:08:53.602Z,14.50
2022-10-07T17:11:31.179Z,15.87
2022-10-07T17:14:03.354Z,16.10
2022-10-07T17:16:36.199Z,18.00
2022-10-07T17:19:09.490Z,16.80
2022-10-07T17:21:41.773Z,17.40
2022-10-07T17:24:14.165Z,17.03
2022-10-07T17:26:44.986Z,17.33
2022-10-07T17:29:18.928Z,17.43
2022-10-07T17:31:51.417Z,16.97
2022-10-07T17:34:24.524Z,17.30
2022-10-07T17:36:55.410Z,17.20
2022-10-07T17:39:26.203Z,17.67
2022-10-07T17:41:56.964Z,17.17
2022-10-07T17:44:27.691Z,18.90
2022-10-07T17:47:00.260Z,20.13
2022-10-07T17:49:33.133Z,19.90
2022-10-07T17:52:04.927Z,18.43
2022-10-07T17:54:35.690Z,19.80
2022-10-07T17:57:06.502Z,20.90
2022-10-07T17:59:37.243Z,20.60
2022-10-07T18:02:07.997Z,19.40
2022-10-07T18:04:40.470Z,21.13
2022-10-07T18:07:11.257Z,21.23
2022-10-07T18:09:42.257Z,23.20
2022-10-07T18:12:29.432Z,21.80
2022-10-07T18:15:16.614Z,22.83
2022-10-07T18:17:48.510Z,20.70
2022-10-07T18:20:22.230Z,22.67
2022-10-07T18:22:57.898Z,23.47
2022-10-07T18:25:28.698Z,20.80
2022-10-07T18:27:59.531Z,22.30
2022-10-07T18:30:30.340Z,23.17
2022-10-07T18:33:01.092Z,22.67
2022-10-07T18:35:33.487Z,23.20
2022-10-07T18:38:04.303Z,21.47
2022-10-07T18:40:35.070Z,20.97
2022-10-07T18:43:05.859Z,23.90
2022-10-07T18:45:36.656Z,22.90
2022-10-07T18:48:07.508Z,24.80
2022-10-07T18:50:39.876Z,21.40
2022-10-07T18:53:10.617Z,23.33
2022-10-07T18:55:42.662Z,24.57
2022-10-07T18:58:13.405Z,25.50
2022-10-07T19:00:45.008Z,25.10
2022-10-07T19:03:15.909Z,23.10
2022-10-07T19:05:48.275Z,22.80
2022-10-07T19:08:19.277Z,22.80
2022-10-07T19:10:50.025Z,22.90
2022-10-07T19:13:39.547Z,20.87
2022-10-07T19:16:10.519Z,21.90
2022-10-07T19:18:41.350Z,23.97
2022-10-07T19:21:14.157Z,22.30
2022-10-07T19:23:44.990Z,22.93
2022-10-07T19:26:20.913Z,22.67
2022-10-07T19:28:53.068Z,22.37
2022-10-07T19:31:26.347Z,22.30
2022-10-07T19:34:03.067Z,23.13
2022-10-07T19:36:37.344Z,22.97
2022-10-07T19:39:08.360Z,23.90
2022-10-07T19:41:40.104Z,22.30
2022-10-07T19:44:10.854Z,22.10
2022-10-07T19:46:42.559Z,22.40
2022-10-07T19:49:13.927Z,20.50
2022-10-07T19:51:46.324Z,19.70
2022-10-07T19:54:17.218Z,21.20
2022-10-07T19:56:48.009Z,21.97
2022-10-07T19:59:18.961Z,22.27
2022-10-07T20:01:50.449Z,21.50
2022-10-07T20:04:22.406Z,19.87
2022-10-07T20:06:54.773Z,21.80
2022-10-07T20:09:25.663Z,20.87
2022-10-07T20:11:56.701Z,20.07
2022-10-07T20:14:27.586Z,20.93
2022-10-07T20:16:58.406Z,20.67
2022-10-07T20:19:29.176Z,20.67
2022-10-07T20:22:02.680Z,20.27
2022-10-07T20:24:33.498Z,19.70
2022-10-07T20:27:04.911Z,20.43
2022-10-07T20:29:55.705Z,18.37
2022-10-07T20:32:26.789Z,19.00
2022-10-07T20:34:57.835Z,20.90
2022-10-07T20:37:30.563Z,21.10
2022-10-07T20:40:20.250Z,20.33
2022-10-07T20:42:51.892Z,20.10
2022-10-07T20:45:22.882Z,19.07
2022-10-07T20:47:56.033Z,18.80
2022-10-07T20:50:26.779Z,17.70
2022-10-07T20:52:59.203Z,18.70
2022-10-07T20:55:34.040Z,17.70
2022-10-07T20:58:06.889Z,18.60
2022-10-07T21:00:37.919Z,18.80
2022-10-07T21:03:08.703Z,16.33
2022-10-07T21:05:40.166Z,17.53
2022-10-07T21:08:12.712Z,17.63
2022-10-07T21:10:43.471Z,17.23
2022-10-07T21:13:15.433Z,17.03
2022-10-07T21:15:46.945Z,18.20
2022-10-07T21:18:18.013Z,17.77
2022-10-07T21:20:56.727Z,16.87
2022-10-07T21:23:30.621Z,16.80
2022-10-07T21:26:04.419Z,16.80
2022-10-07T21:28:37.455Z,15.73
2022-10-07T21:31:10.668Z,16.27
2022-10-07T21:33:42.277Z,16.53
2022-10-07T21:36:16.633Z,17.40
2022-10-07T21:38:52.908Z,16.70
2022-10-07T21:41:25.781Z,17.07
2022-10-07T21:43:59.045Z,16.57
2022-10-07T21:46:30.696Z,17.70
2022-10-07T21:49:01.565Z,17.33
2022-10-07T21:51:33.126Z,17.10
2022-10-07T21:54:05.950Z,15.73
2022-10-07T21:56:37.559Z,16.30
2022-10-07T21:59:08.424Z,15.10
2022-10-07T22:01:39.552Z,16.70
2022-10-07T22:04:10.384Z,15.50
2022-10-07T22:06:57.788Z,16.43
2022-10-07T22:09:30.393Z,15.97
2022-10-07T22:12:01.421Z,15.40
2022-10-07T22:14:32.178Z,16.23
2022-10-07T22:17:02.944Z,14.27
2022-10-07T22:19:33.716Z,14.20
2022-10-07T22:22:05.347Z,15.03
2022-10-07T22:24:37.853Z,15.27
2022-10-07T22:27:08.602Z,14.50
2022-10-07T22:29:40.599Z,14.70
2022-10-07T22:32:11.379Z,14.50
2022-10-07T22:34:58.626Z,15.10
2022-10-07T22:37:29.453Z,15.30
2022-10-07T22:40:01.852Z,15.30
2022-10-07T22:42:32.600Z,14.87
2022-10-07T22:45:03.378Z,14.67
2022-10-07T22:47:34.114Z,14.43
2022-10-07T22:50:09.015Z,15.70
2022-10-07T22:52:39.927Z,14.27
2022-10-07T22:55:12.861Z,15.57
2022-10-07T22:57:43.574Z,14.57
2022-10-07T23:00:15.659Z,13.60
2022-10-07T23:02:46.795Z,14.43
2022-10-07T23:05:18.106Z,15.30
2022-10-07T23:07:48.854Z,16.30
2022-10-07T23:10:21.228Z,15.67
2022-10-07T23:12:51.966Z,15.13
2022-10-07T23:15:22.725Z,14.23
2022-10-07T23:17:53.549Z,15.93
2022-10-07T23:20:28.470Z,14.40
2022-10-07T23:22:59.245Z,13.47
2022-10-07T23:25:31.622Z,15.43
2022-10-07T23:28:02.405Z,14.20
2022-10-07T23:30:33.196Z,15.13
2022-10-07T23:33:03.987Z,15.47
2022-10-07T23:35:34.707Z,14.97
2022-10-07T23:38:05.460Z,14.60
2022-10-07T23:40:37.859Z,15.00
2022-10-07T23:43:08.612Z,15.17
2022-10-07T23:45:39.374Z,16.33
2022-10-07T23:48:10.594Z,15.80
2022-10-07T23:50:44.986Z,14.87
2022-10-07T23:53:15.737Z,15.73
2022-10-07T23:55:50.598Z,15.00
2022-10-07T23:58:22.755Z,15.10
